createdAt,value
2022-11-28T00:01:22.321Z,50.60
2022-11-28T00:03:49.541Z,50.00
2022-11-28T00:06:16.609Z,52.83
2022-11-28T00:08:43.914Z,55.90
2022-11-28T00:11:13.329Z,52.65
2022-11-28T00:13:40.590Z,51.33
2022-11-28T00:16:09.371Z,55.90
2022-11-28T00:18:36.461Z,48.20
2022-11-28T00:21:06.820Z,51.13
2022-11-28T00:23:34.027Z,53.80
2022-11-28T00:26:22.603Z,47.45
2022-11-28T00:28:49.925Z,45.50
2022-11-28T00:31:20.763Z,50.63
2022-11-28T00:33:48.186Z,48.33
2022-11-28T00:36:15.089Z,53.85
2022-11-28T00:38:42.383Z,46.83
2022-11-28T00:41:14.937Z,54.92
2022-11-28T00:43:43.399Z,50.50
2022-11-28T00:46:10.936Z,45.88
2022-11-28T00:48:37.849Z,47.45
2022-11-28T00:51:07.851Z,47.70
2022-11-28T00:53:35.509Z,41.80
2022-11-28T00:56:05.740Z,43.33
2022-11-28T00:58:36.661Z,46.17
2022-11-28T01:01:11.534Z,43.80
2022-11-28T01:03:39.409Z,49.35
2022-11-28T01:06:06.945Z,52.28
2022-11-28T01:08:33.706Z,43.87
2022-11-28T01:11:01.215Z,45.03
2022-11-28T01:13:28.244Z,51.13
2022-11-28T01:15:55.308Z,45.85
2022-11-28T01:18:22.227Z,43.17
2022-11-28T01:20:49.066Z,42.60
2022-11-28T01:23:16.898Z,46.08
2022-11-28T01:25:46.227Z,42.50
2022-11-28T01:28:13.034Z,47.90
2022-11-28T01:30:39.748Z,45.78
2022-11-28T01:33:06.615Z,41.73
2022-11-28T01:35:33.401Z,39.20
2022-11-28T01:38:00.166Z,41.30
2022-11-28T01:40:27.041Z,37.63
2022-11-28T01:42:53.804Z,40.85
2022-11-28T01:45:28.830Z,40.87
2022-11-28T01:48:01.931Z,36.67
2022-11-28T01:50:32.831Z,42.90
2022-11-28T01:53:04.646Z,34.10
2022-11-28T01:55:37.285Z,37.55
2022-11-28T01:58:04.728Z,41.00
2022-11-28T02:00:34.741Z,37.90
2022-11-28T02:03:11.581Z,38.80
2022-11-28T02:05:39.052Z,40.45
2022-11-28T02:08:06.287Z,42.78
2022-11-28T02:10:43.967Z,46.47
2022-11-28T02:13:38.060Z,38.95
2022-11-28T02:16:11.071Z,45.03
2022-11-28T02:18:58.596Z,42.72
2022-11-28T02:21:46.554Z,43.40
2022-11-28T02:24:48.606Z,42.23
2022-11-28T02:27:38.378Z,42.25
2022-11-28T02:30:49.985Z,42.60
2022-11-28T02:33:33.040Z,39.22
2022-11-28T02:36:24.319Z,46.03
2022-11-28T02:39:06.064Z,42.60
2022-11-28T02:41:47.950Z,43.17
2022-11-28T02:44:18.981Z,38.67
2022-11-28T02:47:24.781Z,41.37
2022-11-28T02:50:08.771Z,44.40
2022-11-28T02:52:42.885Z,39.63
2022-11-28T02:55:10.908Z,38.15
2022-11-28T02:57:42.894Z,40.80
2022-11-28T03:00:31.536Z,34.33
2022-11-28T03:03:16.760Z,41.50
2022-11-28T03:06:09.515Z,38.20
2022-11-28T03:09:17.394Z,36.83
2022-11-28T03:11:54.033Z,35.75
2022-11-28T03:14:54.761Z,37.80
2022-11-28T03:17:53.442Z,38.17
2022-11-28T03:20:36.555Z,41.37
2022-11-28T03:23:09.317Z,37.88
2022-11-28T03:25:55.246Z,38.45
2022-11-28T03:28:43.179Z,34.97
2022-11-28T03:31:19.926Z,38.15
2022-11-28T03:33:58.452Z,38.73
2022-11-28T03:36:29.396Z,38.38
2022-11-28T03:39:05.162Z,36.13
2022-11-28T03:41:36.682Z,40.85
2022-11-28T03:44:07.216Z,37.08
2022-11-28T03:46:41.052Z,40.10
2022-11-28T03:49:10.529Z,43.17
2022-11-28T03:51:41.944Z,42.00
2022-11-28T03:54:14.614Z,37.83
2022-11-28T03:57:00.139Z,37.78
2022-11-28T03:59:34.156Z,35.87
2022-11-28T04:02:23.249Z,42.65
2022-11-28T04:05:01.938Z,40.92
2022-11-28T04:07:47.773Z,39.83
2022-11-28T04:10:15.285Z,36.17
2022-11-28T04:12:54.277Z,32.60
2022-11-28T04:15:31.716Z,35.75
2022-11-28T04:18:23.585Z,42.22
2022-11-28T04:20:59.135Z,39.10
2022-11-28T04:23:28.125Z,41.83
2022-11-28T04:26:15.247Z,33.90
2022-11-28T04:28:43.956Z,37.25
2022-11-28T04:31:10.896Z,34.33
2022-11-28T04:33:42.856Z,34.05
2022-11-28T04:36:11.521Z,31.83
2022-11-28T04:38:41.076Z,38.47
2022-11-28T04:41:18.630Z,36.75
2022-11-28T04:43:59.368Z,37.38
2022-11-28T04:46:36.913Z,37.95
2022-11-28T04:49:04.969Z,37.38
2022-11-28T04:52:07.216Z,38.07
2022-11-28T04:55:03.660Z,44.08
2022-11-28T04:57:35.996Z,41.05
2022-11-28T05:00:13.164Z,43.60
2022-11-28T05:02:42.309Z,42.47
2022-11-28T05:05:13.671Z,39.83
2022-11-28T05:07:40.650Z,37.72
2022-11-28T05:10:11.896Z,38.15
2022-11-28T05:12:39.314Z,41.88
2022-11-28T05:15:07.187Z,47.65
2022-11-28T05:17:36.631Z,42.40
2022-11-28T05:20:08.035Z,37.72
2022-11-28T05:22:34.817Z,40.10
2022-11-28T05:25:01.743Z,35.55
2022-11-28T05:27:29.289Z,37.08
2022-11-28T05:29:56.651Z,39.53
2022-11-28T05:32:23.411Z,42.53
2022-11-28T05:34:50.137Z,39.22
2022-11-28T05:37:16.862Z,37.05
2022-11-28T05:39:43.866Z,36.08
2022-11-28T05:42:10.828Z,44.37
2022-11-28T05:44:37.697Z,41.22
2022-11-28T05:47:04.491Z,32.45
2022-11-28T05:49:31.918Z,40.00
2022-11-28T05:51:58.765Z,36.53
2022-11-28T05:54:25.666Z,32.47
2022-11-28T05:56:52.502Z,35.67
2022-11-28T05:59:19.243Z,30.77
2022-11-28T06:01:46.275Z,32.78
2022-11-28T06:04:13.217Z,42.50
2022-11-28T06:06:40.000Z,33.67
2022-11-28T06:09:07.205Z,32.30
2022-11-28T06:11:34.972Z,37.72
2022-11-28T06:14:03.164Z,36.38
2022-11-28T06:16:31.501Z,32.63
2022-11-28T06:19:01.772Z,32.47
2022-11-28T06:21:30.445Z,36.90
2022-11-28T06:23:58.865Z,35.33
2022-11-28T06:26:27.384Z,34.20
2022-11-28T06:28:55.644Z,40.10
2022-11-28T06:31:24.523Z,34.67
2022-11-28T06:33:51.496Z,34.25
2022-11-28T06:36:19.767Z,34.42
2022-11-28T06:38:47.107Z,43.33
2022-11-28T06:41:16.763Z,38.13
2022-11-28T06:43:43.761Z,35.40
2022-11-28T06:46:16.709Z,32.55
2022-11-28T06:48:45.020Z,32.67
2022-11-28T06:51:13.095Z,32.13
2022-11-28T06:53:40.447Z,32.75
2022-11-28T06:56:16.574Z,32.63
2022-11-28T06:58:44.502Z,32.70
2022-11-28T07:01:12.905Z,33.40
2022-11-28T07:03:40.858Z,34.80
2022-11-28T07:06:08.327Z,35.65
2022-11-28T07:08:36.220Z,34.23
2022-11-28T07:11:15.038Z,35.63
2022-11-28T07:13:42.730Z,36.50
2022-11-28T07:16:14.616Z,34.67
2022-11-28T07:18:41.641Z,35.85
2022-11-28T07:21:09.061Z,30.13
2022-11-28T07:23:36.141Z,29.37
2022-11-28T07:26:04.165Z,29.75
2022-11-28T07:28:31.806Z,30.67
2022-11-28T07:31:07.679Z,32.75
2022-11-28T07:33:35.043Z,26.73
2022-11-28T07:36:04.862Z,30.55
2022-11-28T07:38:32.145Z,33.03
2022-11-28T07:41:07.612Z,34.13
2022-11-28T07:43:34.966Z,28.38
2022-11-28T07:46:07.233Z,30.40
2022-11-28T07:48:35.033Z,25.45
2022-11-28T07:51:11.053Z,29.73
2022-11-28T07:53:38.671Z,30.33
2022-11-28T07:56:14.005Z,31.12
2022-11-28T07:58:42.442Z,32.87
2022-11-28T08:01:15.212Z,29.67
2022-11-28T08:03:42.839Z,27.80
2022-11-28T08:06:09.605Z,28.35
2022-11-28T08:08:37.206Z,30.17
2022-11-28T08:11:06.716Z,35.43
2022-11-28T08:13:34.219Z,28.30
2022-11-28T08:16:06.667Z,24.40
2022-11-28T08:18:35.476Z,28.15
2022-11-28T08:21:11.429Z,27.10
2022-11-28T08:23:39.416Z,26.50
2022-11-28T08:26:10.127Z,27.50
2022-11-28T08:28:37.398Z,27.83
2022-11-28T08:31:16.263Z,23.33
2022-11-28T08:33:45.069Z,29.35
2022-11-28T08:36:14.464Z,27.30
2022-11-28T08:38:46.985Z,30.83
2022-11-28T08:41:23.151Z,26.75
2022-11-28T08:43:50.570Z,26.90
2022-11-28T08:46:22.439Z,24.50
2022-11-28T08:48:50.920Z,26.40
2022-11-28T08:51:23.800Z,24.08
2022-11-28T08:53:54.912Z,23.52
2022-11-28T08:56:24.797Z,23.75
2022-11-28T08:58:51.575Z,21.55
2022-11-28T09:01:21.106Z,20.73
2022-11-28T09:03:48.454Z,18.87
2022-11-28T09:06:17.119Z,17.42
2022-11-28T09:08:44.714Z,18.58
2022-11-28T09:11:14.871Z,20.88
2022-11-28T09:13:41.892Z,21.23
2022-11-28T09:16:08.959Z,21.40
2022-11-28T09:18:35.797Z,20.02
2022-11-28T09:21:11.668Z,16.58
2022-11-28T09:23:41.029Z,15.90
2022-11-28T09:26:10.046Z,21.47
2022-11-28T09:28:37.467Z,25.62
2022-11-28T09:31:06.189Z,20.88
2022-11-28T09:33:33.958Z,24.98
2022-11-28T09:36:07.960Z,27.45
2022-11-28T09:38:36.200Z,24.60
2022-11-28T09:41:04.282Z,24.25
2022-11-28T09:43:35.693Z,22.15
2022-11-28T09:46:07.762Z,26.70
2022-11-28T09:48:52.001Z,22.52
2022-11-28T09:51:35.394Z,25.77
2022-11-28T09:54:25.772Z,26.55
2022-11-28T09:56:52.714Z,26.25
2022-11-28T09:59:27.068Z,23.92
2022-11-28T10:02:12.249Z,27.05
2022-11-28T10:04:42.430Z,22.80
2022-11-28T10:07:27.632Z,21.23
2022-11-28T10:10:00.625Z,22.67
2022-11-28T10:12:41.714Z,18.70
2022-11-28T10:15:37.529Z,24.08
2022-11-28T10:18:28.444Z,19.63
2022-11-28T10:21:00.979Z,19.58
2022-11-28T10:23:38.999Z,18.40
2022-11-28T10:26:09.516Z,21.25
2022-11-28T10:28:40.040Z,18.42
2022-11-28T10:31:19.223Z,20.40
2022-11-28T10:33:48.438Z,20.88
2022-11-28T10:36:27.753Z,20.33
2022-11-28T10:38:54.529Z,18.20
2022-11-28T10:41:28.777Z,16.27
2022-11-28T10:44:02.982Z,21.63
2022-11-28T10:46:42.245Z,13.77
2022-11-28T10:49:49.059Z,16.60
2022-11-28T10:52:26.187Z,21.55
2022-11-28T10:55:13.458Z,19.08
2022-11-28T10:57:47.344Z,17.17
2022-11-28T11:00:18.356Z,20.42
2022-11-28T11:02:49.915Z,17.10
2022-11-28T11:05:20.536Z,22.35
2022-11-28T11:07:53.815Z,18.60
2022-11-28T11:10:26.739Z,18.67
2022-11-28T11:12:53.752Z,21.67
2022-11-28T11:15:32.150Z,21.02
2022-11-28T11:18:04.857Z,25.35
2022-11-28T11:20:36.632Z,13.35
2022-11-28T11:23:20.073Z,16.83
2022-11-28T11:25:58.453Z,12.55
2022-11-28T11:28:45.503Z,25.05
2022-11-28T11:31:21.576Z,16.83
2022-11-28T11:33:53.170Z,19.05
2022-11-28T11:36:26.980Z,23.73
2022-11-28T11:39:05.113Z,20.90
2022-11-28T11:41:33.013Z,19.12
2022-11-28T11:44:15.226Z,18.58
2022-11-28T11:46:55.979Z,22.23
2022-11-28T11:49:50.427Z,21.33
2022-11-28T11:52:26.746Z,23.58
2022-11-28T11:54:58.031Z,19.27
2022-11-28T11:57:34.732Z,22.67
2022-11-28T12:00:19.597Z,21.60
2022-11-28T12:02:52.899Z,25.70
2022-11-28T12:05:24.953Z,20.95
2022-11-28T12:08:00.893Z,18.87
2022-11-28T12:10:31.757Z,20.35
2022-11-28T12:12:58.642Z,19.30
2022-11-28T12:15:44.841Z,17.07
2022-11-28T12:18:26.545Z,21.45
2022-11-28T12:21:13.977Z,24.48
2022-11-28T12:23:56.311Z,18.50
2022-11-28T12:26:40.195Z,16.92
2022-11-28T12:29:22.473Z,17.70
2022-11-28T12:32:32.652Z,16.02
2022-11-28T12:35:17.889Z,18.00
2022-11-28T12:41:02.603Z,15.10
2022-11-28T12:43:42.767Z,18.43
2022-11-28T12:46:09.603Z,17.98
2022-11-28T12:48:53.885Z,19.05
2022-11-28T12:51:39.166Z,19.62
2022-11-28T12:54:30.429Z,20.98
2022-11-28T12:57:16.076Z,23.17
2022-11-28T12:59:55.403Z,19.65
2022-11-28T13:02:37.632Z,19.90
2022-11-28T13:05:04.532Z,16.27
2022-11-28T13:07:41.798Z,18.62
2022-11-28T13:10:43.935Z,20.83
2022-11-28T13:13:20.087Z,18.90
2022-11-28T13:15:58.934Z,16.42
2022-11-28T13:18:46.969Z,19.27
2022-11-28T13:21:50.252Z,16.20
2022-11-28T13:24:25.589Z,17.87
2022-11-28T13:27:08.063Z,15.85
2022-11-28T13:30:06.812Z,17.33
2022-11-28T13:32:51.695Z,18.02
2022-11-28T13:35:19.811Z,16.98
2022-11-28T13:40:55.610Z,18.25
2022-11-28T13:43:26.165Z,16.98
2022-11-28T13:49:06.132Z,18.90
2022-11-28T13:51:31.073Z,19.97
2022-11-28T13:54:17.775Z,16.77
2022-11-28T13:56:46.159Z,19.50
2022-11-28T13:59:20.297Z,18.95
2022-11-28T14:01:58.949Z,19.92
2022-11-28T14:04:28.281Z,18.20
2022-11-28T14:07:07.462Z,16.87
2022-11-28T14:09:52.983Z,20.12
2022-11-28T14:12:34.272Z,16.55
2022-11-28T14:15:26.390Z,19.67
2022-11-28T14:18:55.717Z,20.53
2022-11-28T14:21:38.795Z,20.02
2022-11-28T14:24:20.568Z,24.90
2022-11-28T14:26:55.919Z,24.90
2022-11-28T14:29:36.657Z,22.10
2022-11-28T14:34:51.942Z,24.65
2022-11-28T14:37:21.600Z,35.25
2022-11-28T14:39:49.967Z,22.92
2022-11-28T14:42:43.934Z,26.15
2022-11-28T14:45:32.837Z,25.37
2022-11-28T14:48:27.846Z,23.15
2022-11-28T14:51:01.286Z,24.58
2022-11-28T14:53:45.597Z,25.90
2022-11-28T14:56:15.237Z,23.12
2022-11-28T14:58:47.971Z,23.83
2022-11-28T15:01:37.891Z,24.55
2022-11-28T15:04:07.721Z,27.27
2022-11-28T15:06:38.717Z,29.65
2022-11-28T15:09:21.867Z,25.85
2022-11-28T15:12:17.389Z,25.37
2022-11-28T15:14:52.282Z,23.92
2022-11-28T15:17:23.037Z,22.77
2022-11-28T15:19:50.511Z,25.92
2022-11-28T15:22:39.203Z,28.25
2022-11-28T15:25:23.160Z,26.97
2022-11-28T15:27:51.939Z,25.37
2022-11-28T15:30:26.450Z,28.95
2022-11-28T15:32:58.146Z,26.70
2022-11-28T15:35:25.419Z,23.60
2022-11-28T15:37:58.079Z,25.10
2022-11-28T15:40:32.835Z,28.27
2022-11-28T15:43:01.798Z,25.73
2022-11-28T15:45:31.358Z,22.45
2022-11-28T15:47:58.868Z,25.42
2022-11-28T15:50:29.171Z,25.80
2022-11-28T15:53:00.865Z,30.15
2022-11-28T15:55:31.282Z,27.58
2022-11-28T15:58:21.546Z,28.48
2022-11-28T16:01:01.970Z,36.35
2022-11-28T16:03:33.638Z,37.87
2022-11-28T16:06:00.618Z,43.87
2022-11-28T16:08:36.940Z,45.97
2022-11-28T16:11:06.518Z,44.97
2022-11-28T16:13:33.992Z,46.75
2022-11-28T16:16:04.529Z,49.97
2022-11-28T16:18:31.569Z,43.72
2022-11-28T16:21:01.127Z,40.92
2022-11-28T16:23:33.376Z,41.40
2022-11-28T16:26:29.812Z,33.50
2022-11-28T16:29:02.976Z,37.17
2022-11-28T16:31:30.143Z,36.53
2022-11-28T16:33:58.070Z,34.30
2022-11-28T16:36:35.652Z,36.80
2022-11-28T16:39:11.673Z,40.50
2022-11-28T16:41:52.422Z,42.13
2022-11-28T16:44:24.105Z,37.35
2022-11-28T16:46:58.851Z,56.80
2022-11-28T16:49:31.333Z,46.28
2022-11-28T16:52:22.816Z,47.72
2022-11-28T16:54:51.097Z,37.57
2022-11-28T16:57:20.339Z,31.12
2022-11-28T16:59:49.622Z,34.05
2022-11-28T17:02:21.610Z,29.85
2022-11-28T17:04:50.484Z,34.40
2022-11-28T17:07:20.797Z,30.60
2022-11-28T17:09:49.488Z,33.22
2022-11-28T17:12:30.242Z,37.00
2022-11-28T17:14:58.728Z,38.17
2022-11-28T17:17:25.992Z,40.72
2022-11-28T17:19:53.360Z,40.07
2022-11-28T17:22:25.112Z,43.22
2022-11-28T17:24:58.792Z,36.97
2022-11-28T17:27:26.137Z,44.35
2022-11-28T17:29:53.650Z,37.42
2022-11-28T17:32:23.519Z,43.20
2022-11-28T17:34:51.097Z,41.65
2022-11-28T17:37:19.709Z,42.47
2022-11-28T17:40:05.555Z,42.88
2022-11-28T17:42:33.268Z,49.80
2022-11-28T17:45:00.576Z,88.63
2022-11-28T17:47:28.138Z,75.30
2022-11-28T17:49:55.964Z,46.28
2022-11-28T17:52:28.072Z,43.90
2022-11-28T17:55:00.872Z,42.25
2022-11-28T17:57:31.549Z,45.43
2022-11-28T17:59:59.401Z,48.83
2022-11-28T18:02:27.356Z,45.63
2022-11-28T18:04:54.562Z,49.85
2022-11-28T18:07:21.938Z,45.75
2022-11-28T18:09:49.244Z,43.20
2022-11-28T18:12:16.121Z,48.10
2022-11-28T18:14:43.175Z,41.33
2022-11-28T18:17:10.595Z,44.65
2022-11-28T18:19:37.977Z,35.80
2022-11-28T18:22:04.824Z,39.43
2022-11-28T18:24:33.952Z,42.08
2022-11-28T18:27:01.279Z,42.15
2022-11-28T18:29:28.964Z,35.00
2022-11-28T18:31:56.319Z,37.58
2022-11-28T18:34:23.624Z,35.17
2022-11-28T18:36:50.939Z,43.65
2022-11-28T18:39:18.213Z,44.08
2022-11-28T18:41:45.155Z,42.35
2022-11-28T18:44:12.361Z,40.92
2022-11-28T18:46:40.730Z,39.20
2022-11-28T18:49:08.662Z,44.17
2022-11-28T18:51:35.572Z,42.03
2022-11-28T18:54:06.528Z,38.85
2022-11-28T18:56:34.243Z,43.53
2022-11-28T18:59:01.694Z,44.73
2022-11-28T19:01:31.694Z,40.10
2022-11-28T19:04:04.425Z,38.17
2022-11-28T19:06:32.892Z,36.10
2022-11-28T19:09:02.796Z,39.03
2022-11-28T19:11:30.663Z,39.07
2022-11-28T19:13:58.521Z,43.80
2022-11-28T19:16:31.196Z,39.85
2022-11-28T19:18:59.518Z,41.65
2022-11-28T19:21:29.556Z,39.63
2022-11-28T19:23:57.507Z,36.47
2022-11-28T19:26:27.792Z,36.55
2022-11-28T19:28:55.810Z,38.72
2022-11-28T19:31:28.813Z,39.55
2022-11-28T19:34:00.902Z,39.47
2022-11-28T19:36:34.599Z,35.70
2022-11-28T19:39:03.619Z,44.08
2022-11-28T19:41:34.574Z,56.22
2022-11-28T19:44:02.125Z,63.20
2022-11-28T19:46:35.391Z,49.38
2022-11-28T19:49:04.915Z,45.83
2022-11-28T19:51:32.308Z,47.40
2022-11-28T19:54:03.514Z,41.63
2022-11-28T19:56:35.320Z,42.78
2022-11-28T19:59:02.315Z,41.70
2022-11-28T20:01:29.661Z,40.63
2022-11-28T20:03:59.245Z,39.42
2022-11-28T20:06:30.464Z,41.40
2022-11-28T20:09:04.063Z,43.42
2022-11-28T20:11:34.571Z,39.13
2022-11-28T20:14:16.189Z,61.37
2022-11-28T20:16:45.333Z,62.70
2022-11-28T20:19:14.700Z,39.47
2022-11-28T20:21:42.079Z,59.33
2022-11-28T20:24:09.712Z,64.70
2022-11-28T20:26:42.119Z,50.37
2022-11-28T20:29:13.241Z,54.67
2022-11-28T20:31:46.718Z,54.97
2022-11-28T20:34:15.311Z,54.38
2022-11-28T20:36:42.679Z,53.22
2022-11-28T20:39:16.624Z,52.73
2022-11-28T20:41:44.208Z,51.40
2022-11-28T20:44:11.845Z,42.95
2022-11-28T20:46:40.376Z,44.40
2022-11-28T20:49:08.252Z,48.20
2022-11-28T20:51:36.483Z,46.70
2022-11-28T20:54:05.329Z,43.15
2022-11-28T20:56:51.615Z,43.60
2022-11-28T20:59:22.735Z,39.55
2022-11-28T21:01:49.646Z,40.90
2022-11-28T21:04:17.957Z,41.63
2022-11-28T21:06:47.249Z,44.65
2022-11-28T21:09:15.592Z,41.83
2022-11-28T21:11:56.896Z,42.17
2022-11-28T21:14:24.760Z,41.28
2022-11-28T21:16:51.651Z,38.10
2022-11-28T21:19:18.638Z,35.67
2022-11-28T21:21:45.732Z,38.42
2022-11-28T21:24:13.780Z,39.70
2022-11-28T21:26:46.388Z,40.28
2022-11-28T21:29:16.931Z,37.17
2022-11-28T21:31:45.560Z,36.10
2022-11-28T21:34:15.685Z,39.28
2022-11-28T21:36:43.179Z,35.30
2022-11-28T21:39:13.550Z,44.83
2022-11-28T21:41:40.731Z,42.33
2022-11-28T21:44:07.738Z,43.80
2022-11-28T21:46:34.527Z,47.83
2022-11-28T21:49:02.002Z,53.22
2022-11-28T21:51:29.081Z,49.35
2022-11-28T21:53:57.602Z,46.37
2022-11-28T21:56:25.343Z,41.63
2022-11-28T21:58:52.219Z,43.00
2022-11-28T22:01:20.427Z,40.42
2022-11-28T22:03:47.334Z,41.40
2022-11-28T22:06:17.763Z,41.83
2022-11-28T22:08:45.102Z,38.85
2022-11-28T22:11:13.430Z,40.83
2022-11-28T22:13:47.605Z,36.60
2022-11-28T22:16:22.518Z,39.25
2022-11-28T22:18:51.485Z,34.97
2022-11-28T22:24:05.971Z,34.45
2022-11-28T22:26:33.028Z,36.28
2022-11-28T22:29:01.021Z,33.72
2022-11-28T22:31:28.121Z,36.40
2022-11-28T22:33:55.035Z,38.80
2022-11-28T22:36:22.521Z,35.55
2022-11-28T22:38:54.662Z,32.05
2022-11-28T22:41:28.275Z,39.40
2022-11-28T22:43:56.749Z,30.53
2022-11-28T22:46:23.798Z,33.75
2022-11-28T22:48:51.920Z,31.20
2022-11-28T22:51:23.736Z,36.70
2022-11-28T22:53:59.300Z,40.35
2022-11-28T22:56:26.576Z,33.40
2022-11-28T22:58:53.445Z,34.03
2022-11-28T23:01:24.079Z,38.05
2022-11-28T23:03:51.988Z,33.75
2022-11-28T23:06:22.066Z,31.52
2022-11-28T23:08:50.213Z,30.30
2022-11-28T23:11:20.952Z,29.35
2022-11-28T23:13:49.244Z,28.12
2022-11-28T23:16:19.223Z,29.10
2022-11-28T23:18:48.009Z,29.90
2022-11-28T23:21:16.816Z,28.70
2022-11-28T23:23:46.401Z,26.98
2022-11-28T23:26:16.082Z,34.10
2022-11-28T23:28:43.961Z,36.92
2022-11-28T23:31:19.829Z,27.83
2022-11-28T23:33:47.090Z,32.23
2022-11-28T23:36:19.007Z,30.70
2022-11-28T23:38:49.111Z,31.48
2022-11-28T23:41:16.477Z,26.40
2022-11-28T23:43:43.516Z,28.45
2022-11-28T23:46:11.965Z,19.50
2022-11-28T23:48:39.251Z,19.87
2022-11-28T23:51:06.920Z,22.65
2022-11-28T23:53:34.681Z,24.67
2022-11-28T23:56:06.344Z,23.35
2022-11-28T23:58:34.275Z,22.63
